Página principal
METAR-TAF:

METAR-TAF

Aeroportos :

Chengdu, China

Aeroporto Internacional de Chengdu Shuangliu

latitude: 30-40N, longitude: 104-01E, altura: 508 m

Observação actual do tempo

O boletim foi feito há 53 minutos, às 22:00 UTC
Vento 2 kt com direcção variável
Temperatura 9°C
Humidade 93%
Pressão 1027 hPa
Visibilidade: 6000 m
Nuvens dispersasa uma altura de 5000 ft

METAR: ZUUU 212200Z VRB01MPS 6000 SCT050 09/08 Q1027 NOSIG

Hora: 06:53 (22:53 UTC)

Previsão

O boletim foi feito há 8 horas e 49 minutos, às 14:04 UTC
Previsão válida de 21 às 18 UTC a 22 às 18 UTC
Vento 6 kt de norte
Visibilidade: 5000 m
Nuvens dispersasa uma altura de 4000 ft
neblina

TAF: ZUUU 211404Z 2118/2218 36003MPS 5000 BR SCT040 TX12/2206Z TN07/2122Z

Observações e previsões do tempo de mais de 4000 aeroportos (mensagens METAR e TAF).

As estações disponíveis são os pontos amarelos e vermelhos sobre o mapa.

Mova o rato sobre o mapa para ver o nome da estação.

Depois clique no ponto para visualizar as observações e previsões meteorológicas.

Para alterar o mapa : clique nos botões verdes com uma cruz preta para aumentar o zoom; no botão verde com uma pitada de zoom; ou nas setas verdes para mapas adjacentes.


METAR-TAF: